Time;durP1;ratioP1;P1;durP2;ratioP2;P2;SDS_P1;SDS_P2;PMS_P1;PMS_P2;Temp;Humidity;BMP_temperature;BMP_pressure;BME280_temperature;BME280_humidity;BME280_pressure;Samples;Min_cycle;Max_cycle;Signal;HPM_P1;HPM_P2
2021/10/27 00:00:09;;;;;;;10.32;7.85;;;;;;;7.81;100.00;101427.78;4979152;28;20115;-70
2021/10/27 00:02:53;;;;;;;10.30;7.18;;;;;;;7.79;100.00;101435.84;4979371;28;20092;-69
2021/10/27 00:05:37;;;;;;;10.60;7.22;;;;;;;7.71;100.00;101430.19;4979092;28;20514;-70
2021/10/27 00:08:21;;;;;;;22.98;13.75;;;;;;;7.94;100.00;101434.03;4979007;28;20042;-70
2021/10/27 00:11:06;;;;;;;22.05;13.98;;;;;;;7.97;100.00;101428.50;4992311;28;20108;-69
2021/10/27 00:13:50;;;;;;;14.52;8.43;;;;;;;7.94;100.00;101423.41;4965309;28;20114;-69
2021/10/27 00:16:34;;;;;;;21.55;12.75;;;;;;;7.93;100.00;101421.69;4993907;28;20364;-70
2021/10/27 00:19:18;;;;;;;10.43;6.63;;;;;;;7.84;100.00;101432.91;4992817;28;20053;-70
2021/10/27 00:22:02;;;;;;;12.95;6.20;;;;;;;7.68;100.00;101432.16;4979452;28;20044;-70
2021/10/27 00:24:47;;;;;;;11.55;7.43;;;;;;;7.58;100.00;101431.06;4965496;28;20073;-69
2021/10/27 00:27:31;;;;;;;12.90;6.07;;;;;;;7.51;100.00;101435.03;4979185;28;20502;-70
2021/10/27 00:30:15;;;;;;;17.88;7.50;;;;;;;7.46;100.00;101434.50;4978823;28;20129;-69
2021/10/27 00:32:59;;;;;;;9.82;6.72;;;;;;;7.40;100.00;101437.50;4993801;28;20530;-69
2021/10/27 00:35:43;;;;;;;11.70;8.30;;;;;;;7.38;100.00;101434.13;4978796;28;20053;-70
2021/10/27 00:38:27;;;;;;;12.88;8.45;;;;;;;7.35;100.00;101429.00;4978822;28;20083;-70
2021/10/27 00:41:11;;;;;;;11.02;7.25;;;;;;;7.30;100.00;101425.78;4978628;28;20118;-69
2021/10/27 00:43:55;;;;;;;12.85;7.63;;;;;;;7.26;100.00;101428.72;4979068;28;20130;-69
2021/10/27 00:46:39;;;;;;;12.63;6.65;;;;;;;7.19;100.00;101427.41;4978804;28;20509;-69
2021/10/27 00:49:23;;;;;;;17.27;9.15;;;;;;;7.26;100.00;101429.56;4964985;28;20057;-69
2021/10/27 00:52:10;;;;;;;14.52;8.13;;;;;;;7.20;100.00;101423.81;4965255;28;20109;-69
2021/10/27 00:54:54;;;;;;;10.75;7.57;;;;;;;7.18;100.00;101431.00;4979064;28;20065;-69
2021/10/27 00:57:38;;;;;;;10.85;7.57;;;;;;;7.13;100.00;101433.94;4965141;28;20554;-69
2021/10/27 01:00:22;;;;;;;11.30;8.05;;;;;;;7.12;100.00;101432.25;4964910;28;20518;-70
2021/10/27 01:03:06;;;;;;;11.85;8.02;;;;;;;-139.48;100.00;61774.03;4978652;28;20566;-69
2021/10/27 01:05:50;;;;;;;13.23;8.73;;;;;;;-139.48;100.00;61774.03;4978775;28;20138;-70
2021/10/27 01:08:34;;;;;;;10.27;7.28;;;;;;;-139.48;100.00;61774.03;4978813;28;20097;-70
2021/10/27 01:11:18;;;;;;;17.88;11.13;;;;;;;-139.48;100.00;61774.03;4978768;28;20052;-69
2021/10/27 01:14:08;;;;;;;12.88;7.90;;;;;;;-139.48;100.00;61774.03;4992214;28;20045;-69
2021/10/27 01:16:53;;;;;;;10.05;7.22;;;;;;;-139.48;100.00;61774.03;4978857;28;20100;-69
2021/10/27 01:19:44;;;;;;;13.50;7.85;;;;;;;-139.48;100.00;61774.03;4978587;28;20045;-70
2021/10/27 01:22:31;;;;;;;12.40;8.43;;;;;;;-139.48;100.00;61774.03;4994711;28;20109;-69
2021/10/27 01:25:15;;;;;;;12.07;8.27;;;;;;;-139.48;100.00;61774.03;4982116;28;20049;-69
2021/10/27 01:28:00;;;;;;;18.33;10.45;;;;;;;-139.48;100.00;61774.03;4982084;28;20575;-69
2021/10/27 01:30:44;;;;;;;11.05;8.30;;;;;;;-139.48;100.00;61774.03;4996397;28;20097;-69
2021/10/27 01:33:28;;;;;;;14.60;9.57;;;;;;;-139.48;100.00;61774.03;4968307;28;20502;-69
2021/10/27 01:36:16;;;;;;;14.20;8.80;;;;;;;-139.48;100.00;61774.03;4982137;28;20586;-69
2021/10/27 01:39:00;;;;;;;12.38;7.80;;;;;;;-139.48;100.00;61774.03;4981393;28;20100;-70
2021/10/27 01:41:44;;;;;;;16.58;9.30;;;;;;;-139.48;100.00;61774.03;4982036;28;20085;-69
2021/10/27 01:44:28;;;;;;;17.60;10.00;;;;;;;-139.48;100.00;61774.03;4968110;28;20084;-70
2021/10/27 01:47:12;;;;;;;19.13;11.98;;;;;;;-139.48;100.00;61774.03;4995156;28;20147;-69
2021/10/27 01:49:56;;;;;;;22.52;13.32;;;;;;;-139.48;100.00;61774.03;4996672;28;20410;-69
2021/10/27 01:52:40;;;;;;;17.63;12.15;;;;;;;-139.48;100.00;61774.03;4995364;28;20057;-69
2021/10/27 01:55:24;;;;;;;22.65;12.88;;;;;;;-139.48;100.00;61774.03;4981230;28;20049;-69
2021/10/27 01:58:08;;;;;;;19.10;13.77;;;;;;;7.12;100.00;101432.25;4996203;28;20526;-69
2021/10/27 02:00:52;;;;;;;26.88;14.70;;;;;;;8.13;100.00;101407.97;4967454;28;20414;-70
2021/10/27 02:03:36;;;;;;;22.95;14.18;;;;;;;8.15;100.00;101403.41;4995158;28;20138;-69
2021/10/27 02:06:20;;;;;;;24.85;15.95;;;;;;;8.13;100.00;101405.31;4994848;28;20053;-68
2021/10/27 02:09:04;;;;;;;17.73;12.65;;;;;;;8.11;100.00;101409.84;4994690;28;20093;-70
2021/10/27 02:11:49;;;;;;;21.02;14.32;;;;;;;8.08;100.00;101404.75;4981305;28;20095;-69
2021/10/27 02:14:34;;;;;;;25.13;15.38;;;;;;;8.15;100.00;101412.19;4994805;28;20049;-69
2021/10/27 02:17:18;;;;;;;27.98;15.65;;;;;;;8.12;100.00;101401.78;4994575;28;20562;-69
2021/10/27 02:20:04;;;;;;;21.20;14.48;;;;;;;8.16;100.00;101399.78;4980969;28;20045;-70
2021/10/27 02:22:48;;;;;;;29.35;15.85;;;;;;;8.14;100.00;101409.66;4995773;28;20049;-69
2021/10/27 02:25:32;;;;;;;23.98;16.20;;;;;;;8.16;100.00;101410.41;4980998;28;20049;-69
2021/10/27 02:28:16;;;;;;;26.73;16.70;;;;;;;8.19;100.00;101413.75;4994738;28;20092;-69
2021/10/27 02:31:00;;;;;;;26.65;16.98;;;;;;;8.19;100.00;101413.75;4994403;28;20114;-69
2021/10/27 02:33:44;;;;;;;23.20;15.32;;;;;;;8.15;100.00;101411.38;4980848;28;20046;-69
2021/10/27 02:36:28;;;;;;;26.17;15.63;;;;;;;8.14;100.00;101409.66;4994500;28;20130;-69
2021/10/27 02:39:12;;;;;;;24.10;15.18;;;;;;;8.11;100.00;101408.06;4995024;28;20543;-69
2021/10/27 02:41:55;;;;;;;26.00;15.55;;;;;;;8.06;100.00;101404.84;4994200;28;20045;-69
2021/10/27 02:44:39;;;;;;;21.92;14.63;;;;;;;8.09;100.00;101409.09;4994365;28;20049;-69
2021/10/27 02:47:23;;;;;;;22.42;15.77;;;;;;;8.06;100.00;101402.19;4980410;28;20049;-69
2021/10/27 02:50:08;;;;;;;26.98;15.50;;;;;;;8.10;100.00;101408.16;4980210;28;20108;-69
2021/10/27 02:52:53;;;;;;;24.98;15.23;;;;;;;8.11;100.00;101409.84;4994423;28;20053;-69
2021/10/27 02:55:36;;;;;;;22.92;15.77;;;;;;;8.11;100.00;101410.72;4994153;28;20057;-70
2021/10/27 02:58:20;;;;;;;25.52;15.02;;;;;;;8.13;100.00;101402.66;4993826;28;20169;-70
2021/10/27 03:01:04;;;;;;;22.10;15.02;;;;;;;8.11;100.00;101404.53;4994738;28;20180;-70
2021/10/27 03:03:49;;;;;;;22.90;15.32;;;;;;;8.09;100.00;101406.44;4993711;28;20049;-69
2021/10/27 03:06:33;;;;;;;23.42;15.38;;;;;;;8.07;100.00;101408.34;4994958;28;20053;-69
2021/10/27 03:09:17;;;;;;;23.60;15.55;;;;;;;8.06;100.00;101402.19;4993893;28;20049;-69
2021/10/27 03:12:02;;;;;;;24.50;15.68;;;;;;;8.06;100.00;101401.34;4993896;28;20132;-70
2021/10/27 03:14:45;;;;;;;23.20;15.93;;;;;;;8.03;100.00;101406.88;4994516;28;20053;-69
2021/10/27 03:17:29;;;;;;;21.13;15.52;;;;;;;7.95;100.00;101409.16;4993746;28;20100;-69
2021/10/27 03:20:13;;;;;;;22.60;15.15;;;;;;;7.95;100.00;101411.81;4979647;28;20053;-69
2021/10/27 03:22:57;;;;;;;26.90;15.38;;;;;;;-139.48;100.00;61774.03;4993962;28;20096;-69
2021/10/27 03:25:41;;;;;;;23.85;15.75;;;;;;;-139.48;100.00;61774.03;4993663;28;20056;-69
2021/10/27 03:28:25;;;;;;;23.73;15.45;;;;;;;-139.48;100.00;61774.03;4980189;28;20056;-69
2021/10/27 03:31:09;;;;;;;24.23;16.52;;;;;;;-139.48;100.00;61774.03;4993524;28;20518;-69
2021/10/27 03:33:53;;;;;;;26.23;17.13;;;;;;;-139.48;100.00;61774.03;4979491;28;20049;-69
2021/10/27 03:36:37;;;;;;;29.27;17.10;;;;;;;7.99;100.00;101410.66;4994089;28;20056;-69
2021/10/27 03:39:21;;;;;;;25.38;16.40;;;;;;;-139.48;100.00;61774.03;4993287;28;20140;-67
2021/10/27 03:42:05;;;;;;;25.70;16.45;;;;;;;-139.48;100.00;61774.03;4979619;28;20081;-70
2021/10/27 03:44:48;;;;;;;24.08;17.23;;;;;;;-139.48;100.00;61774.03;4992670;28;20117;-70
2021/10/27 03:47:36;;;;;;;23.90;16.48;;;;;;;-139.48;100.00;61774.03;4993332;28;20045;-70
2021/10/27 03:50:21;;;;;;;23.95;15.60;;;;;;;-139.48;100.00;61774.03;4965995;28;20049;-69
2021/10/27 03:53:04;;;;;;;26.52;16.58;;;;;;;-139.48;100.00;61774.03;4993287;28;20049;-69
2021/10/27 03:55:48;;;;;;;26.17;16.67;;;;;;;-139.48;100.00;61774.03;4979192;28;20108;-69
2021/10/27 03:58:33;;;;;;;25.17;16.27;;;;;;;-139.48;100.00;61774.03;4994127;28;20407;-70
2021/10/27 04:01:17;;;;;;;25.15;16.85;;;;;;;-139.48;100.00;61774.03;4979411;28;20614;-70
2021/10/27 04:04:01;;;;;;;26.10;15.80;;;;;;;-139.48;100.00;61774.03;4992987;28;20097;-67
2021/10/27 04:06:45;;;;;;;21.55;15.15;;;;;;;-139.48;100.00;61774.03;4993105;28;20043;-70
2021/10/27 04:09:29;;;;;;;26.60;15.60;;;;;;;-139.48;100.00;61774.03;4992919;28;20076;-70
2021/10/27 04:12:13;;;;;;;24.25;14.88;;;;;;;-139.48;100.00;61774.03;4979231;28;20053;-70
2021/10/27 04:14:57;;;;;;;23.65;14.30;;;;;;;-139.48;100.00;61774.03;4993022;28;20081;-70
2021/10/27 04:17:42;;;;;;;19.73;14.32;;;;;;;-139.48;100.00;61774.03;4978852;28;20049;-69
2021/10/27 04:20:26;;;;;;;21.88;14.32;;;;;;;-139.48;100.00;61774.03;4992907;28;20144;-70
2021/10/27 04:23:11;;;;;;;23.38;14.57;;;;;;;-139.48;100.00;61774.03;4979235;28;20570;-70
2021/10/27 04:25:55;;;;;;;23.40;14.30;;;;;;;-139.48;100.00;61774.03;4979016;28;20088;-70
2021/10/27 04:28:39;;;;;;;20.63;14.60;;;;;;;-139.48;100.00;61774.03;4992904;28;20471;-70
2021/10/27 04:31:23;;;;;;;23.77;14.32;;;;;;;-139.48;100.00;61774.03;4992868;28;20054;-70
2021/10/27 04:34:06;;;;;;;18.35;13.43;;;;;;;-139.48;100.00;61774.03;4992770;28;20049;-70
2021/10/27 04:36:50;;;;;;;19.38;14.27;;;;;;;-139.48;100.00;61774.03;4993472;28;20105;-69
2021/10/27 04:39:35;;;;;;;;;;;;;;;-139.48;100.00;61774.03;4979034;28;20412;-70
2021/10/27 04:42:19;;;;;;;25.33;17.23;;;;;;;-139.48;100.00;61774.03;4993463;28;19972;-69
2021/10/27 04:45:05;;;;;;;22.40;13.60;;;;;;;-139.48;100.00;61774.03;4992702;28;20153;-70
2021/10/27 04:47:49;;;;;;;17.25;12.35;;;;;;;-139.48;100.00;61774.03;4978703;28;20174;-69
2021/10/27 04:50:33;;;;;;;27.25;13.85;;;;;;;-139.48;100.00;61774.03;4978606;28;20526;-69
2021/10/27 04:53:19;;;;;;;17.58;13.45;;;;;;;-139.48;100.00;61774.03;4965304;28;20145;-70
2021/10/27 04:56:03;;;;;;;21.63;13.73;;;;;;;-139.48;100.00;61774.03;4966638;28;20395;-70
2021/10/27 04:58:47;;;;;;;21.33;14.13;;;;;;;-139.48;100.00;61774.03;4982509;28;20542;-69
2021/10/27 05:01:31;;;;;;;25.17;16.27;;;;;;;-139.48;100.00;61774.03;4996045;28;20573;-69
2021/10/27 05:04:15;;;;;;;22.80;15.35;;;;;;;-139.48;100.00;61774.03;4996289;28;20128;-70
2021/10/27 05:06:59;;;;;;;22.63;15.60;;;;;;;-139.48;100.00;61774.03;4982664;28;20046;-70
2021/10/27 05:09:44;;;;;;;22.98;14.45;;;;;;;-139.48;100.00;61774.03;4995924;28;20527;-70
2021/10/27 05:12:27;;;;;;;24.15;14.55;;;;;;;-139.48;100.00;61774.03;4996100;28;20104;-70
2021/10/27 05:15:11;;;;;;;22.50;15.23;;;;;;;-139.48;100.00;61774.03;4982265;28;20506;-69
2021/10/27 05:17:55;;;;;;;22.48;14.02;;;;;;;-139.48;100.00;61774.03;4995823;28;20105;-70
2021/10/27 05:20:39;;;;;;;26.13;15.75;;;;;;;-139.48;100.00;61774.03;4995902;28;20072;-69
2021/10/27 05:23:23;;;;;;;24.58;15.52;;;;;;;8.10;100.00;101454.16;4995921;28;20106;-70
2021/10/27 05:26:07;;;;;;;25.30;15.90;;;;;;;8.06;100.00;101447.31;4983811;28;20137;-70
2021/10/27 05:28:51;;;;;;;24.75;15.73;;;;;;;8.07;100.00;101445.53;4995771;28;20225;-70
2021/10/27 05:31:35;;;;;;;24.50;15.25;;;;;;;8.07;100.00;101446.41;4996781;28;20101;-70
2021/10/27 05:34:19;;;;;;;18.73;13.93;;;;;;;8.11;100.00;101457.66;4981671;28;20057;-70
2021/10/27 05:37:04;;;;;;;24.48;14.80;;;;;;;8.16;100.00;101458.22;4995605;28;20180;-69
2021/10/27 05:39:48;;;;;;;22.30;15.45;;;;;;;8.21;100.00;101453.47;4981473;28;20514;-70
2021/10/27 05:42:33;;;;;;;20.70;14.52;;;;;;;8.25;100.00;101460.31;4995578;28;20526;-70
2021/10/27 05:45:19;;;;;;;21.23;15.55;;;;;;;8.30;100.00;101452.88;4995239;28;20077;-69
2021/10/27 05:48:04;;;;;;;21.80;15.63;;;;;;;;;;4981709;28;20073;-69
2021/10/27 05:57:05;;;;;;;24.70;15.60;;;;;;;-139.48;100.00;61774.03;4995413;28;20045;-70
2021/10/27 05:59:51;;;;;;;24.65;15.55;;;;;;;-139.48;100.00;61774.03;4996107;28;20120;-70
2021/10/27 06:02:36;;;;;;;24.40;15.68;;;;;;;-139.48;100.00;61774.03;4995259;28;20136;-70
2021/10/27 06:05:20;;;;;;;24.70;15.80;;;;;;;-139.48;100.00;61774.03;4994863;28;20423;-70
2021/10/27 06:08:04;;;;;;;21.95;14.60;;;;;;;-139.48;100.00;61774.03;4994509;28;20464;-70
2021/10/27 06:10:54;;;;;;;22.02;15.65;;;;;;;-139.48;100.00;61774.03;4981002;28;20467;-70
2021/10/27 06:13:46;;;;;;;25.63;15.15;;;;;;;-139.48;100.00;61774.03;4981052;28;20188;-70
2021/10/27 06:16:30;;;;;;;20.80;15.15;;;;;;;-139.48;100.00;61774.03;4967844;28;20064;-70
2021/10/27 06:19:14;;;;;;;21.30;15.60;;;;;;;-139.48;100.00;61774.03;4995757;28;20044;-69
2021/10/27 06:21:58;;;;;;;21.70;15.60;;;;;;;-139.48;100.00;61774.03;4980930;28;20138;-69
2021/10/27 06:24:42;;;;;;;19.67;14.15;;;;;;;-139.48;100.00;61774.03;4994779;28;20506;-69
2021/10/27 06:27:26;;;;;;;25.02;15.80;;;;;;;-139.48;100.00;61774.03;4994992;28;20128;-70
2021/10/27 06:30:19;;;;;;;24.13;16.20;;;;;;;-139.48;100.00;61774.03;4994601;28;20518;-69
2021/10/27 06:33:20;;;;;;;23.00;16.15;;;;;;;-139.48;100.00;61774.03;4982055;28;20050;-69
2021/10/27 06:36:14;;;;;;;24.25;15.10;;;;;;;-139.48;100.00;61774.03;4994796;28;20412;-70
2021/10/27 06:39:28;;;;;;;20.30;14.82;;;;;;;-139.48;100.00;61774.03;4994357;28;20061;-70
2021/10/27 06:48:31;;;;;;;20.48;14.55;;;;;;;-139.48;100.00;61774.03;4995186;28;20096;-70
2021/10/27 06:51:16;;;;;;;18.27;12.90;;;;;;;-139.48;100.00;61774.03;4994224;28;20462;-69
2021/10/27 06:54:01;;;;;;;22.13;14.13;;;;;;;-139.48;100.00;61774.03;4980577;28;20045;-70
2021/10/27 06:56:45;;;;;;;23.50;15.07;;;;;;;-139.48;100.00;61774.03;4980375;28;20053;-70
2021/10/27 06:59:35;;;;;;;20.38;14.90;;;;;;;-139.48;100.00;61774.03;4993782;28;20053;-69
2021/10/27 07:05:28;;;;;;;23.65;15.32;;;;;;;-139.48;100.00;61774.03;4995001;28;20049;-70
2021/10/27 07:17:20;;;;;;;18.55;13.48;;;;;;;-139.48;100.00;61774.03;4993947;28;20105;-70
2021/10/27 07:20:06;;;;;;;20.65;14.30;;;;;;;-139.48;100.00;61774.03;4992843;28;20498;-70
2021/10/27 07:22:56;;;;;;;19.42;14.27;;;;;;;-139.48;100.00;61774.03;4979851;28;20054;-69
2021/10/27 07:25:40;;;;;;;19.33;12.85;;;;;;;-139.48;100.00;61774.03;4994455;28;20053;-69
2021/10/27 07:28:25;;;;;;;18.67;13.00;;;;;;;-139.48;100.00;61774.03;4979914;28;20613;-70
2021/10/27 07:31:13;;;;;;;17.38;11.93;;;;;;;-139.48;100.00;61774.03;4979642;28;20129;-69
2021/10/27 07:34:05;;;;;;;16.80;11.88;;;;;;;-139.48;100.00;61774.03;4993814;28;20057;-70
2021/10/27 07:42:39;;;;;;;16.05;12.18;;;;;;;-139.48;100.00;61774.03;4993679;28;20407;-70
2021/10/27 07:45:25;;;;;;;18.80;13.20;;;;;;;-139.48;100.00;61774.03;4993624;28;20052;-70
2021/10/27 07:48:09;;;;;;;23.23;13.38;;;;;;;-139.48;100.00;61774.03;4979634;28;20100;-69
2021/10/27 07:50:53;;;;;;;16.92;12.23;;;;;;;-139.48;100.00;61774.03;4979278;28;20101;-69
2021/10/27 07:53:41;;;;;;;19.13;12.98;;;;;;;-139.48;100.00;61774.03;4979609;28;20104;-71
2021/10/27 07:56:29;;;;;;;21.02;13.50;;;;;;;-139.48;100.00;61774.03;4966901;28;20141;-68
2021/10/27 07:59:17;;;;;;;18.73;13.55;;;;;;;-139.48;100.00;61774.03;4992976;28;20053;-70
2021/10/27 08:02:04;;;;;;;18.83;12.98;;;;;;;-139.48;100.00;61774.03;4992845;28;20506;-68
2021/10/27 08:04:48;;;;;;;19.20;13.35;;;;;;;-139.48;100.00;61774.03;4979377;28;20573;-70
2021/10/27 08:07:32;;;;;;;19.98;13.40;;;;;;;-139.48;100.00;61774.03;4993705;28;20415;-68
2021/10/27 08:10:18;;;;;;;16.60;11.50;;;;;;;-139.48;100.00;61774.03;4992765;28;20539;-70
2021/10/27 08:13:02;;;;;;;17.50;11.73;;;;;;;-139.48;100.00;61774.03;4979256;28;20100;-70
2021/10/27 08:15:47;;;;;;;20.00;11.30;;;;;;;-139.48;100.00;61774.03;4979257;28;20101;-70
2021/10/27 08:18:31;;;;;;;17.90;12.90;;;;;;;-139.48;100.00;61774.03;4993885;28;20049;-68
2021/10/27 08:21:15;;;;;;;15.68;11.10;;;;;;;-139.48;100.00;61774.03;4992603;28;20130;-70
2021/10/27 08:23:59;;;;;;;10.63;9.25;;;;;;;-139.48;100.00;61774.03;4979100;28;20607;-70
2021/10/27 08:26:51;;;;;;;16.52;10.13;;;;;;;-139.48;100.00;61774.03;4965560;28;20419;-70
2021/10/27 08:29:39;;;;;;;13.05;10.07;;;;;;;-139.48;100.00;61774.03;4993958;28;20407;-70
2021/10/27 08:35:13;;;;;;;14.07;9.35;;;;;;;-139.48;100.00;61774.03;4996581;28;20044;-69
2021/10/27 08:37:58;;;;;;;11.57;9.48;;;;;;;-139.48;100.00;61774.03;4983083;28;20052;-70
2021/10/27 08:40:45;;;;;;;13.38;10.02;;;;;;;-139.48;100.00;61774.03;4982509;28;20049;-70
2021/10/27 08:43:30;;;;;;;12.02;9.02;;;;;;;-139.48;100.00;61774.03;4982809;28;20049;-70
2021/10/27 08:46:16;;;;;;;13.38;9.57;;;;;;;-139.48;100.00;61774.03;4982807;28;20049;-70
2021/10/27 08:49:03;;;;;;;11.88;7.70;;;;;;;-139.48;100.00;61774.03;4968790;28;20571;-70
2021/10/27 08:51:49;;;;;;;10.05;7.90;;;;;;;-139.48;100.00;61774.03;4982812;28;20053;-68
2021/10/27 08:54:34;;;;;;;12.80;8.10;;;;;;;-139.48;100.00;61774.03;4968730;28;20052;-68
2021/10/27 08:57:19;;;;;;;10.35;7.03;;;;;;;-139.48;100.00;61774.03;4982837;28;20192;-70
2021/10/27 09:00:24;;;;;;;11.23;6.80;;;;;;;-139.48;100.00;61774.03;4969023;28;20114;-70
2021/10/27 09:06:59;;;;;;;9.55;6.88;;;;;;;-139.48;100.00;61774.03;4983169;28;20041;-70
2021/10/27 09:34:03;;;;;;;11.35;5.78;;;;;;;-139.48;100.00;61774.03;4984695;28;20534;-70
2021/10/27 10:04:03;;;;;;;7.38;6.07;;;;;;;-139.48;100.00;61774.03;4984117;28;20096;-70
2021/10/27 10:05:00;;;;;;;7.35;6.00;;;;;;;-139.48;100.00;61774.03;4984940;28;20084;-70
2021/10/27 10:07:44;;;;;;;8.57;4.85;;;;;;;-139.48;100.00;61774.03;4967423;28;20126;-70
2021/10/27 10:10:29;;;;;;;6.55;3.72;;;;;;;-139.48;100.00;61774.03;4981199;28;20109;-70
2021/10/27 10:13:15;;;;;;;8.63;4.80;;;;;;;-139.48;100.00;61774.03;4981107;28;20514;-70
2021/10/27 10:15:59;;;;;;;5.18;4.53;;;;;;;-139.48;100.00;61774.03;4980884;28;20053;-70
2021/10/27 10:18:43;;;;;;;4.75;3.97;;;;;;;-139.48;100.00;61774.03;4980992;28;20049;-70
2021/10/27 10:21:29;;;;;;;7.05;4.38;;;;;;;-139.48;100.00;61774.03;4980847;28;20100;-71
2021/10/27 10:24:16;;;;;;;7.78;4.78;;;;;;;-139.48;100.00;61774.03;4995525;28;20053;-70
2021/10/27 10:27:07;;;;;;;6.93;4.03;;;;;;;-139.48;100.00;61774.03;4994782;28;20414;-70
2021/10/27 10:29:59;;;;;;;5.38;3.80;;;;;;;-139.48;100.00;61774.03;4980980;28;20101;-70
2021/10/27 10:32:48;;;;;;;6.63;3.67;;;;;;;-139.48;100.00;61774.03;4967838;28;20415;-70
2021/10/27 10:38:42;;;;;;;4.05;3.63;;;;;;;-139.48;100.00;61774.03;4981191;28;20130;-70
2021/10/27 10:45:35;;;;;;;5.28;3.72;;;;;;;-139.48;100.00;61774.03;4995406;28;20053;-67
2021/10/27 11:24:13;;;;;;;14.57;10.37;;;;;;;-139.48;100.00;61774.03;4982616;28;20045;-69
2021/10/27 11:39:45;;;;;;;4.57;2.60;;;;;;;-139.48;100.00;61774.03;4995298;28;20049;-69
2021/10/27 11:45:26;;;;;;;2.90;2.03;;;;;;;-139.48;100.00;61774.03;4979865;28;20523;-69
2021/10/27 11:51:09;;;;;;;7.15;4.20;;;;;;;-139.48;100.00;61774.03;4980109;28;20101;-69
2021/10/27 11:53:53;;;;;;;4.80;2.17;;;;;;;-139.48;100.00;61774.03;4994054;28;20534;-69
2021/10/27 11:56:38;;;;;;;2.38;2.10;;;;;;;-139.48;100.00;61774.03;4994018;28;20049;-69
2021/10/27 11:59:22;;;;;;;2.30;1.60;;;;;;;-139.48;100.00;61774.03;4979573;28;20110;-68
2021/10/27 12:02:06;;;;;;;5.18;2.30;;;;;;;-139.48;100.00;61774.03;4993911;28;20064;-68
2021/10/27 12:04:52;;;;;;;3.88;2.40;;;;;;;-139.48;100.00;61774.03;4979211;28;20124;-69
2021/10/27 12:07:51;;;;;;;6.55;3.20;;;;;;;-139.48;100.00;61774.03;4978858;28;20502;-68
2021/10/27 12:10:54;;;;;;;4.80;3.10;;;;;;;-139.48;100.00;61774.03;4993794;28;20054;-68
2021/10/27 12:14:01;;;;;;;8.07;3.65;;;;;;;-139.48;100.00;61774.03;4981945;28;20108;-69
2021/10/27 12:19:36;;;;;;;5.95;2.95;;;;;;;-139.48;100.00;61774.03;4980188;28;20049;-69
2021/10/27 12:22:22;;;;;;;3.78;2.72;;;;;;;-139.48;100.00;61774.03;4965794;28;20057;-68
2021/10/27 12:25:07;;;;;;;6.07;3.42;;;;;;;-139.48;100.00;61774.03;4979092;28;20141;-69
2021/10/27 12:27:57;;;;;;;4.45;3.35;;;;;;;-139.48;100.00;61774.03;4993835;28;20438;-69
2021/10/27 12:30:44;;;;;;;5.25;2.80;;;;;;;-139.48;100.00;61774.03;4979770;28;20049;-68
2021/10/27 12:33:42;;;;;;;4.95;3.08;;;;;;;-139.48;100.00;61774.03;4979464;28;20137;-68
2021/10/27 12:36:33;;;;;;;3.95;2.40;;;;;;;-139.48;100.00;61774.03;4994069;28;20056;-69
2021/10/27 12:39:26;;;;;;;15.73;11.68;;;;;;;-139.48;100.00;61774.03;4979664;28;20478;-67
2021/10/27 12:42:12;;;;;;;3.60;2.60;;;;;;;-139.48;100.00;61774.03;4979670;28;20108;-69
2021/10/27 12:44:56;;;;;;;3.35;2.40;;;;;;;-139.48;100.00;61774.03;4979055;28;20267;-69
2021/10/27 12:47:40;;;;;;;7.88;4.32;;;;;;;-139.48;100.00;61774.03;4978909;28;20057;-68
2021/10/27 12:50:24;;;;;;;7.05;6.25;;;;;;;-139.48;100.00;61774.03;4978830;28;20110;-68
2021/10/27 12:53:09;;;;;;;11.18;9.45;;;;;;;-139.48;100.00;61774.03;4978700;28;20466;-69
2021/10/27 12:56:13;;;;;;;4.43;3.17;;;;;;;-139.48;100.00;61774.03;4978785;28;20563;-69
2021/10/27 12:59:01;;;;;;;;;;;;;;;-139.48;100.00;61774.03;4993247;28;20042;-68
2021/10/27 13:01:55;;;;;;;6.22;2.80;;;;;;;-139.48;100.00;61774.03;4993917;28;20066;-68
2021/10/27 13:05:10;;;;;;;5.93;3.42;;;;;;;-139.48;100.00;61774.03;4980199;28;20101;-68
2021/10/27 13:07:53;;;;;;;8.15;4.60;;;;;;;-139.48;100.00;61774.03;4993658;28;20041;-69
2021/10/27 13:11:00;;;;;;;;;;;;;;;-139.48;100.00;61774.03;4966797;28;20419;-69
2021/10/27 13:14:04;;;;;;;4.22;2.65;;;;;;;-139.48;100.00;61774.03;4992411;28;19924;-69
2021/10/27 13:22:48;;;;;;;4.80;3.00;;;;;;;-139.48;100.00;61774.03;4996733;28;20073;-69
2021/10/27 13:31:39;;;;;;;3.77;2.30;;;;;;;-139.48;100.00;61774.03;4996859;28;20040;-69
2021/10/27 13:34:24;;;;;;;4.45;2.33;;;;;;;-139.48;100.00;61774.03;4996764;28;20633;-69
2021/10/27 13:37:08;;;;;;;5.97;4.88;;;;;;;-139.48;100.00;61774.03;4968230;28;20125;-69
2021/10/27 13:39:53;;;;;;;3.83;2.70;;;;;;;-139.48;100.00;61774.03;4981601;28;20053;-69
2021/10/27 13:42:55;;;;;;;5.50;2.90;;;;;;;-139.48;100.00;61774.03;4981908;28;20049;-69
2021/10/27 13:45:55;;;;;;;3.97;2.80;;;;;;;-139.48;100.00;61774.03;4984518;28;20049;-68
2021/10/27 13:58:08;;;;;;;14.82;8.40;;;;;;;-139.48;100.00;61774.03;4984243;28;20411;-68
2021/10/27 14:07:01;;;;;;;37.45;28.80;;;;;;;-139.48;100.00;61774.03;4995962;28;20053;-68
2021/10/27 14:12:46;;;;;;;4.40;3.28;;;;;;;-139.48;100.00;61774.03;4981058;28;20115;-68
2021/10/27 14:22:20;;;;;;;5.47;3.95;;;;;;;-139.48;100.00;61774.03;4981381;28;20081;-69
2021/10/27 14:40:03;;;;;;;4.75;3.00;;;;;;;-139.48;100.00;61774.03;4995044;28;20088;-71
2021/10/27 15:34:22;;;;;;;6.10;3.28;;;;;;;-139.48;100.00;61774.03;4982678;28;20568;-70
2021/10/27 15:40:25;;;;;;;4.50;3.03;;;;;;;-139.48;100.00;61774.03;4981395;28;20556;-70
2021/10/27 15:43:57;;;;;;;9.95;4.10;;;;;;;-139.48;100.00;61774.03;4981558;28;20540;-69
2021/10/27 15:52:24;;;;;;;9.23;3.28;;;;;;;-139.48;100.00;61774.03;4994094;28;20145;-69
2021/10/27 15:55:08;;;;;;;4.68;3.17;;;;;;;-139.48;100.00;61774.03;4979743;28;20122;-69
2021/10/27 15:57:53;;;;;;;6.45;2.88;;;;;;;-139.48;100.00;61774.03;4979522;28;20494;-70
2021/10/27 16:00:40;;;;;;;4.70;2.80;;;;;;;-139.48;100.00;61774.03;4979413;28;20514;-70
2021/10/27 16:03:24;;;;;;;5.68;2.80;;;;;;;-139.48;100.00;61774.03;4979896;28;20095;-69
2021/10/27 16:06:08;;;;;;;5.30;2.78;;;;;;;-139.48;100.00;61774.03;4965449;28;20478;-70
2021/10/27 16:08:56;;;;;;;6.10;2.30;;;;;;;-139.48;100.00;61774.03;4993810;28;20415;-71
2021/10/27 16:11:40;;;;;;;8.35;3.65;;;;;;;-139.48;100.00;61774.03;4966278;28;20133;-70
2021/10/27 16:14:25;;;;;;;5.07;3.22;;;;;;;-139.48;100.00;61774.03;4979031;28;20133;-69
2021/10/27 16:17:09;;;;;;;6.47;2.67;;;;;;;-139.48;100.00;61774.03;4993996;28;20049;-69
2021/10/27 16:19:53;;;;;;;5.03;2.67;;;;;;;-139.48;100.00;61774.03;4965568;28;20165;-70
2021/10/27 16:22:37;;;;;;;7.18;3.03;;;;;;;-139.48;100.00;61774.03;4979316;28;20053;-70
2021/10/27 16:25:21;;;;;;;5.72;2.80;;;;;;;-139.48;100.00;61774.03;4978981;28;20549;-69
2021/10/27 16:28:05;;;;;;;5.65;3.38;;;;;;;-139.48;100.00;61774.03;4978842;28;20088;-69
2021/10/27 16:30:50;;;;;;;10.93;3.65;;;;;;;-139.48;100.00;61774.03;4965240;28;20467;-69
2021/10/27 16:33:34;;;;;;;7.53;3.90;;;;;;;-139.48;100.00;61774.03;4979083;28;20048;-69
2021/10/27 16:36:22;;;;;;;9.70;3.70;;;;;;;-139.48;100.00;61774.03;4993602;28;20053;-70
2021/10/27 16:39:06;;;;;;;9.88;4.32;;;;;;;-139.48;100.00;61774.03;4965255;28;20234;-70
2021/10/27 16:41:50;;;;;;;8.15;3.85;;;;;;;-139.48;100.00;61774.03;4978799;28;20519;-68
2021/10/27 16:44:34;;;;;;;10.68;4.07;;;;;;;-139.48;100.00;61774.03;4993610;28;20046;-70
2021/10/27 16:47:18;;;;;;;9.82;4.65;;;;;;;-139.48;100.00;61774.03;4978303;28;20104;-69
2021/10/27 16:50:05;;;;;;;6.60;4.68;;;;;;;-139.48;100.00;61774.03;4993027;28;20053;-69
2021/10/27 16:52:49;;;;;;;8.23;4.78;;;;;;;-139.48;100.00;61774.03;4966704;28;20101;-69